Terminal Aerodrome Forecast
Issued by NWS

Home | Current Version | Previous Version | Text Only | Print | Product List | Glossary On
Versions: 1 2 3 4 5 6 7 8 9 10 11 12 13 14 15 16 17 18 19 20
000
FTUS46 KOTX 191739
TAFSFF
TAF
KSFF 191739Z 1918/2018 12007KT P6SM FEW110 BKN200
     FM192000 19007KT P6SM SCT070 OVC110
     FM192300 24011G21KT P6SM VCSH SCT050 OVC080
     FM200400 23014G22KT P6SM BKN090
     FM201100 22010KT P6SM FEW090=

USA.gov is the U.S. government's official web portal to all federal, state and local government web resources and services.